Gobernador Gregores, Argentina
Current Conditions -  °F | °C
As of 1:00 AM on Sunday 26 Oct 2014 (Local Time) from SAWG Reporting Station
Scattered Clouds Scattered Clouds  
Wind Chill: 42°   Ceiling: Unl
Heat Index: 48°   Visibility: 6mi
Dew Point: 32°   Wind: 18mph
Humidity: 54%   Direction: 250°WSW
Pressure: 29.41"   Gusts: NA
Location:  48.75°S, 70.24°W
Report Text: SAWG 260400Z 25016KT 9999 SCT035 SCT10009/M00 Q0996
Loading
Personal Weather Stations






























Interactive Weather Map
Tropical Storm Tracking
New forecast layout! Learn more

10-Day Weather Forecast

Advertisements
Track Severe Weather on mobile